sensor_id;sensor_type;location;lat;lon;timestamp;pressure;altitude;pressure_sealevel;temperature;humidity
57574;BME280;63722;48.858;21.906;2023-03-03T00:02:03;98759.81;;;22.53;32.95
57574;BME280;63722;48.858;21.906;2023-03-03T00:04:28;98760.84;;;22.52;32.92
57574;BME280;63722;48.858;21.906;2023-03-03T00:06:54;98767.03;;;22.52;32.96
57574;BME280;63722;48.858;21.906;2023-03-03T00:09:19;98765.69;;;22.55;32.75
57574;BME280;63722;48.858;21.906;2023-03-03T00:11:47;98759.81;;;22.53;32.78
57574;BME280;63722;48.858;21.906;2023-03-03T00:14:28;98757.13;;;22.53;32.84
57574;BME280;63722;48.858;21.906;2023-03-03T00:16:55;98760.31;;;22.50;32.70
57574;BME280;63722;48.858;21.906;2023-03-03T00:19:21;98743.22;;;22.51;32.83
57574;BME280;63722;48.858;21.906;2023-03-03T00:21:51;98752.59;;;22.53;32.68
57574;BME280;63722;48.858;21.906;2023-03-03T00:24:24;98754.47;;;22.53;32.71
57574;BME280;63722;48.858;21.906;2023-03-03T00:26:56;98748.00;;;22.49;32.54
57574;BME280;63722;48.858;21.906;2023-03-03T00:29:40;98742.72;;;22.54;32.80
57574;BME280;63722;48.858;21.906;2023-03-03T00:34:48;98745.31;;;22.49;32.90
57574;BME280;63722;48.858;21.906;2023-03-03T00:37:22;98742.66;;;22.49;32.88
57574;BME280;63722;48.858;21.906;2023-03-03T00:39:49;98734.38;;;22.50;32.90
57574;BME280;63722;48.858;21.906;2023-03-03T00:42:17;98733.84;;;22.48;32.79
57574;BME280;63722;48.858;21.906;2023-03-03T00:44:44;98736.25;;;22.50;32.73
57574;BME280;63722;48.858;21.906;2023-03-03T00:47:24;98734.63;;;22.49;32.95
57574;BME280;63722;48.858;21.906;2023-03-03T00:49:51;98733.06;;;22.48;32.73
57574;BME280;63722;48.858;21.906;2023-03-03T00:52:18;98727.97;;;22.46;32.86
57574;BME280;63722;48.858;21.906;2023-03-03T00:54:44;98726.63;;;22.49;32.83
57574;BME280;63722;48.858;21.906;2023-03-03T00:57:10;98713.78;;;22.46;32.84
57574;BME280;63722;48.858;21.906;2023-03-03T00:59:37;98718.88;;;22.47;32.67
57574;BME280;63722;48.858;21.906;2023-03-03T01:02:02;98719.44;;;22.49;32.69
57574;BME280;63722;48.858;21.906;2023-03-03T01:04:28;98718.88;;;22.47;32.90
57574;BME280;63722;48.858;21.906;2023-03-03T01:06:53;98717.00;;;22.48;32.87
57574;BME280;63722;48.858;21.906;2023-03-03T01:09:19;98721.28;;;22.49;32.66
57574;BME280;63722;48.858;21.906;2023-03-03T01:11:44;98717.00;;;22.48;32.83
57574;BME280;63722;48.858;21.906;2023-03-03T01:14:09;98709.53;;;22.50;32.82
57574;BME280;63722;48.858;21.906;2023-03-03T01:16:35;98709.78;;;22.48;32.93
57574;BME280;63722;48.858;21.906;2023-03-03T01:19:00;98702.56;;;22.49;32.95
57574;BME280;63722;48.858;21.906;2023-03-03T01:21:26;98701.53;;;22.50;32.84
57574;BME280;63722;48.858;21.906;2023-03-03T01:23:51;98696.44;;;22.48;32.72
57574;BME280;63722;48.858;21.906;2023-03-03T01:26:17;98694.81;;;22.47;32.88
57574;BME280;63722;48.858;21.906;2023-03-03T01:28:42;98695.06;;;22.46;32.74
57574;BME280;63722;48.858;21.906;2023-03-03T01:31:08;98695.63;;;22.48;33.08
57574;BME280;63722;48.858;21.906;2023-03-03T01:33:34;98693.47;;;22.45;32.93
57574;BME280;63722;48.858;21.906;2023-03-03T01:36:00;98689.19;;;22.44;32.79
57574;BME280;63722;48.858;21.906;2023-03-03T01:38:26;98688.66;;;22.42;32.88
57574;BME280;63722;48.858;21.906;2023-03-03T01:40:54;98694.78;;;22.42;33.00
57574;BME280;63722;48.858;21.906;2023-03-03T01:43:20;98702.28;;;22.45;32.81
57574;BME280;63722;48.858;21.906;2023-03-03T01:51:04;98690.81;;;22.45;32.99
57574;BME280;63722;48.858;21.906;2023-03-03T01:53:38;98684.63;;;22.44;32.88
57574;BME280;63722;48.858;21.906;2023-03-03T01:56:07;98686.00;;;22.47;32.67
57574;BME280;63722;48.858;21.906;2023-03-03T01:58:41;98687.06;;;22.46;33.04
57574;BME280;63722;48.858;21.906;2023-03-03T02:01:13;98683.03;;;22.43;32.83
57574;BME280;63722;48.858;21.906;2023-03-03T02:03:40;98676.88;;;22.43;32.83
57574;BME280;63722;48.858;21.906;2023-03-03T02:06:09;98687.31;;;22.44;32.79
57574;BME280;63722;48.858;21.906;2023-03-03T02:11:22;98692.13;;;22.42;32.87
57574;BME280;63722;48.858;21.906;2023-03-03T02:13:48;98692.41;;;22.46;32.70
57574;BME280;63722;48.858;21.906;2023-03-03T02:16:13;98690.22;;;22.43;32.72
57574;BME280;63722;48.858;21.906;2023-03-03T02:18:39;98687.56;;;22.43;33.12
57574;BME280;63722;48.858;21.906;2023-03-03T02:21:11;98689.19;;;22.44;32.93
57574;BME280;63722;48.858;21.906;2023-03-03T02:24:05;98686.50;;;22.44;33.01
57574;BME280;63722;48.858;21.906;2023-03-03T02:26:29;98685.97;;;22.42;33.00
57574;BME280;63722;48.858;21.906;2023-03-03T02:28:55;98686.75;;;22.42;32.88
57574;BME280;63722;48.858;21.906;2023-03-03T02:31:24;98684.09;;;22.42;33.24
57574;BME280;63722;48.858;21.906;2023-03-03T02:33:51;98685.41;;;22.40;32.82
57574;BME280;63722;48.858;21.906;2023-03-03T02:36:20;98681.69;;;22.41;33.06
57574;BME280;63722;48.858;21.906;2023-03-03T02:46:27;98671.78;;;22.41;32.63
57574;BME280;63722;48.858;21.906;2023-03-03T02:48:53;98664.03;;;22.40;33.01
57574;BME280;63722;48.858;21.906;2023-03-03T02:51:19;98663.78;;;22.41;33.17
57574;BME280;63722;48.858;21.906;2023-03-03T02:53:44;98664.59;;;22.42;32.89
57574;BME280;63722;48.858;21.906;2023-03-03T02:56:09;98663.78;;;22.41;32.89
57574;BME280;63722;48.858;21.906;2023-03-03T02:58:36;98659.50;;;22.40;32.95
57574;BME280;63722;48.858;21.906;2023-03-03T03:01:02;98652.28;;;22.41;32.96
57574;BME280;63722;48.858;21.906;2023-03-03T03:03:28;98654.97;;;22.41;32.93
57574;BME280;63722;48.858;21.906;2023-03-03T03:05:53;98657.63;;;22.41;33.01
57574;BME280;63722;48.858;21.906;2023-03-03T03:08:19;98661.34;;;22.40;32.89
57574;BME280;63722;48.858;21.906;2023-03-03T03:10:45;98657.63;;;22.41;33.05
57574;BME280;63722;48.858;21.906;2023-03-03T03:13:10;98652.53;;;22.39;32.77
57574;BME280;63722;48.858;21.906;2023-03-03T03:15:36;98657.63;;;22.41;32.92
57574;BME280;63722;48.858;21.906;2023-03-03T03:18:02;98658.69;;;22.40;32.95
57574;BME280;63722;48.858;21.906;2023-03-03T03:20:27;98655.22;;;22.39;32.92
57574;BME280;63722;48.858;21.906;2023-03-03T03:22:53;98651.50;;;22.40;32.89
57574;BME280;63722;48.858;21.906;2023-03-03T03:25:18;98650.66;;;22.40;33.10
57574;BME280;63722;48.858;21.906;2023-03-03T03:27:43;98650.66;;;22.40;32.86
57574;BME280;63722;48.858;21.906;2023-03-03T03:30:09;98652.53;;;22.39;32.89
57574;BME280;63722;48.858;21.906;2023-03-03T03:32:35;98649.06;;;22.39;32.96
57574;BME280;63722;48.858;21.906;2023-03-03T03:35:00;98646.66;;;22.37;33.00
57574;BME280;63722;48.858;21.906;2023-03-03T03:37:26;98645.59;;;22.38;32.93
57574;BME280;63722;48.858;21.906;2023-03-03T03:39:51;98643.16;;;22.37;32.83
57574;BME280;63722;48.858;21.906;2023-03-03T03:42:18;98640.25;;;22.38;32.70
57574;BME280;63722;48.858;21.906;2023-03-03T03:44:43;98636.50;;;22.39;32.92
57574;BME280;63722;48.858;21.906;2023-03-03T03:47:08;98644.53;;;22.39;33.10
57574;BME280;63722;48.858;21.906;2023-03-03T03:49:34;98645.31;;;22.40;32.92
57574;BME280;63722;48.858;21.906;2023-03-03T03:51:59;98636.50;;;22.39;32.92
57574;BME280;63722;48.858;21.906;2023-03-03T03:54:25;98635.72;;;22.39;32.83
57574;BME280;63722;48.858;21.906;2023-03-03T03:56:50;98636.50;;;22.39;33.02
57574;BME280;63722;48.858;21.906;2023-03-03T03:59:15;98626.63;;;22.40;33.01
57574;BME280;63722;48.858;21.906;2023-03-03T04:01:41;98626.63;;;22.40;32.84
57574;BME280;63722;48.858;21.906;2023-03-03T04:04:06;98626.63;;;22.40;33.00
57574;BME280;63722;48.858;21.906;2023-03-03T04:06:32;98633.06;;;22.39;33.10
57574;BME280;63722;48.858;21.906;2023-03-03T04:08:57;98625.53;;;22.35;33.09
57574;BME280;63722;48.858;21.906;2023-03-03T04:11:22;98628.22;;;22.35;33.09
57574;BME280;63722;48.858;21.906;2023-03-03T04:13:48;98625.28;;;22.37;33.10
57574;BME280;63722;48.858;21.906;2023-03-03T04:16:13;98626.09;;;22.38;32.85
57574;BME280;63722;48.858;21.906;2023-03-03T04:18:40;98626.09;;;22.38;32.91
57574;BME280;63722;48.858;21.906;2023-03-03T04:21:11;98627.72;;;22.39;32.99
57574;BME280;63722;48.858;21.906;2023-03-03T04:23:36;98617.53;;;22.35;33.00
57574;BME280;63722;48.858;21.906;2023-03-03T04:26:02;98621.53;;;22.38;33.03
57574;BME280;63722;48.858;21.906;2023-03-03T04:28:27;98618.06;;;22.38;32.95
57574;BME280;63722;48.858;21.906;2023-03-03T04:30:52;98618.31;;;22.36;33.05
57574;BME280;63722;48.858;21.906;2023-03-03T04:33:18;98617.53;;;22.35;32.85
57574;BME280;63722;48.858;21.906;2023-03-03T04:35:44;98612.97;;;22.36;32.96
57574;BME280;63722;48.858;21.906;2023-03-03T04:38:09;98612.97;;;22.36;32.84
57574;BME280;63722;48.858;21.906;2023-03-03T04:40:34;98613.78;;;22.37;32.90
57574;BME280;63722;48.858;21.906;2023-03-03T04:43:00;98614.88;;;22.35;32.87
57574;BME280;63722;48.858;21.906;2023-03-03T04:45:25;98609.50;;;22.35;32.84
57574;BME280;63722;48.858;21.906;2023-03-03T04:47:51;98603.59;;;22.33;32.91
57574;BME280;63722;48.858;21.906;2023-03-03T04:50:16;98610.56;;;22.34;32.79
57574;BME280;63722;48.858;21.906;2023-03-03T04:52:41;98609.78;;;22.34;32.95
57574;BME280;63722;48.858;21.906;2023-03-03T04:55:07;98609.78;;;22.34;32.82
57574;BME280;63722;48.858;21.906;2023-03-03T04:57:33;98604.19;;;22.35;32.95
57574;BME280;63722;48.858;21.906;2023-03-03T04:59:59;98604.19;;;22.35;33.08
57574;BME280;63722;48.858;21.906;2023-03-03T05:02:24;98603.59;;;22.33;32.86
57574;BME280;63722;48.858;21.906;2023-03-03T05:04:49;98604.44;;;22.34;32.88
57574;BME280;63722;48.858;21.906;2023-03-03T05:07:15;98611.38;;;22.35;32.96
57574;BME280;63722;48.858;21.906;2023-03-03T05:09:41;98609.78;;;22.34;32.77
57574;BME280;63722;48.858;21.906;2023-03-03T05:12:07;98616.97;;;22.33;32.92
57574;BME280;63722;48.858;21.906;2023-03-03T05:14:32;98604.44;;;22.34;33.04
57574;BME280;63722;48.858;21.906;2023-03-03T05:16:58;98612.19;;;22.35;32.88
57574;BME280;63722;48.858;21.906;2023-03-03T05:19:23;98610.03;;;22.32;32.99
57574;BME280;63722;48.858;21.906;2023-03-03T05:21:49;98616.72;;;22.35;32.83
57574;BME280;63722;48.858;21.906;2023-03-03T05:24:15;98617.03;;;22.39;32.70
57574;BME280;63722;48.858;21.906;2023-03-03T05:26:40;98613.00;;;22.41;33.05
57574;BME280;63722;48.858;21.906;2023-03-03T05:29:07;98617.03;;;22.44;32.83
57574;BME280;63722;48.858;21.906;2023-03-03T05:31:33;98616.53;;;22.47;32.70
57574;BME280;63722;48.858;21.906;2023-03-03T05:33:58;98618.69;;;22.50;32.78
57574;BME280;63722;48.858;21.906;2023-03-03T05:36:24;98620.59;;;22.55;32.65
57574;BME280;63722;48.858;21.906;2023-03-03T05:38:49;98624.63;;;22.57;32.77
57574;BME280;63722;48.858;21.906;2023-03-03T05:41:15;98625.44;;;22.63;32.78
57574;BME280;63722;48.858;21.906;2023-03-03T05:43:40;98626.78;;;22.65;32.64
57574;BME280;63722;48.858;21.906;2023-03-03T05:46:06;98633.78;;;22.71;32.49
57574;BME280;63722;48.858;21.906;2023-03-03T05:48:32;98633.81;;;22.77;32.80
57574;BME280;63722;48.858;21.906;2023-03-03T05:50:58;98629.56;;;22.81;32.61
57574;BME280;63722;48.858;21.906;2023-03-03T05:53:24;98639.19;;;22.82;32.39
57574;BME280;63722;48.858;21.906;2023-03-03T05:55:50;98637.06;;;22.84;32.57
57574;BME280;63722;48.858;21.906;2023-03-03T05:58:15;98630.06;;;22.73;32.64
57574;BME280;63722;48.858;21.906;2023-03-03T06:00:40;98631.09;;;22.66;32.34
57574;BME280;63722;48.858;21.906;2023-03-03T06:03:06;98635.88;;;22.64;31.70
57574;BME280;63722;48.858;21.906;2023-03-03T06:05:31;98635.88;;;22.64;31.95
57574;BME280;63722;48.858;21.906;2023-03-03T06:07:57;98639.09;;;22.66;31.56
57574;BME280;63722;48.858;21.906;2023-03-03T06:10:22;98639.91;;;22.72;31.56
57574;BME280;63722;48.858;21.906;2023-03-03T06:12:48;98635.66;;;22.71;31.14
57574;BME280;63722;48.858;21.906;2023-03-03T06:15:13;98633.53;;;22.73;31.10
57574;BME280;63722;48.858;21.906;2023-03-03T06:17:38;98646.13;;;22.78;30.86
57574;BME280;63722;48.858;21.906;2023-03-03T06:20:05;98639.97;;;22.77;30.58
57574;BME280;63722;48.858;21.906;2023-03-03T06:22:31;98635.94;;;22.80;30.55
57574;BME280;63722;48.858;21.906;2023-03-03T06:24:56;98644.50;;;22.77;30.48
57574;BME280;63722;48.858;21.906;2023-03-03T06:27:21;98642.38;;;22.79;30.50
57574;BME280;63722;48.858;21.906;2023-03-03T06:29:47;98645.59;;;22.81;30.33
57574;BME280;63722;48.858;21.906;2023-03-03T06:32:13;98641.34;;;22.85;30.12
57574;BME280;63722;48.858;21.906;2023-03-03T06:34:38;98650.97;;;22.86;30.14
57574;BME280;63722;48.858;21.906;2023-03-03T06:37:04;98655.75;;;22.79;29.99
57574;BME280;63722;48.858;21.906;2023-03-03T06:39:29;98657.94;;;22.87;30.00
57574;BME280;63722;48.858;21.906;2023-03-03T06:41:54;98648.81;;;22.83;29.91
57574;BME280;63722;48.858;21.906;2023-03-03T06:44:20;98654.16;;;22.83;29.62
57574;BME280;63722;48.858;21.906;2023-03-03T06:46:45;98648.81;;;22.83;29.51
57574;BME280;63722;48.858;21.906;2023-03-03T06:49:11;98648.81;;;22.83;29.43
57574;BME280;63722;48.858;21.906;2023-03-03T06:51:38;98649.91;;;22.87;29.90
57574;BME280;63722;48.858;21.906;2023-03-03T06:54:16;98658.00;;;22.97;29.85
57574;BME280;63722;48.858;21.906;2023-03-03T06:56:43;98654.22;;;22.93;30.10
57574;BME280;63722;48.858;21.906;2023-03-03T06:59:15;98649.38;;;22.90;30.37
57574;BME280;63722;48.858;21.906;2023-03-03T07:01:42;98656.34;;;22.91;29.97
57574;BME280;63722;48.858;21.906;2023-03-03T07:04:27;98654.22;;;22.98;29.88
57574;BME280;63722;48.858;21.906;2023-03-03T07:06:54;98657.16;;;22.97;29.57
57574;BME280;63722;48.858;21.906;2023-03-03T07:09:26;98663.34;;;22.97;29.31
57574;BME280;63722;48.858;21.906;2023-03-03T07:11:54;98666.03;;;23.02;29.69
57574;BME280;63722;48.858;21.906;2023-03-03T07:14:21;98658.00;;;23.02;29.64
57574;BME280;63722;48.858;21.906;2023-03-03T07:16:51;98663.34;;;23.02;28.95
57574;BME280;63722;48.858;21.906;2023-03-03T07:19:25;98669.75;;;23.01;29.30
57574;BME280;63722;48.858;21.906;2023-03-03T07:21:54;98670.00;;;23.00;29.79
57574;BME280;63722;48.858;21.906;2023-03-03T07:24:28;98668.69;;;22.97;30.03
57574;BME280;63722;48.858;21.906;2023-03-03T07:27:13;98672.16;;;22.98;30.20
57574;BME280;63722;48.858;21.906;2023-03-03T07:29:41;98673.19;;;22.92;30.03
57574;BME280;63722;48.858;21.906;2023-03-03T07:34:59;98675.63;;;22.98;29.79
57574;BME280;63722;48.858;21.906;2023-03-03T07:37:50;98669.22;;;22.99;29.87
57574;BME280;63722;48.858;21.906;2023-03-03T07:40:37;98686.03;;;22.89;29.09
57574;BME280;63722;48.858;21.906;2023-03-03T07:45:47;98685.06;;;22.63;29.62
57574;BME280;63722;48.858;21.906;2023-03-03T07:48:23;98688.56;;;22.69;29.36
57574;BME280;63722;48.858;21.906;2023-03-03T07:50:49;98688.19;;;22.55;28.33
57574;BME280;63722;48.858;21.906;2023-03-03T07:53:26;98684.50;;;22.61;28.77
57574;BME280;63722;48.858;21.906;2023-03-03T07:55:52;98679.97;;;22.62;28.84
57574;BME280;63722;48.858;21.906;2023-03-03T07:58:28;98686.69;;;22.69;27.98
57574;BME280;63722;48.858;21.906;2023-03-03T08:03:56;98683.53;;;22.78;29.76
57574;BME280;63722;48.858;21.906;2023-03-03T08:11:34;98683.03;;;22.81;29.18
57574;BME280;63722;48.858;21.906;2023-03-03T08:14:00;98677.16;;;22.84;28.92
57574;BME280;63722;48.858;21.906;2023-03-03T08:16:37;98689.47;;;22.85;28.74
57574;BME280;63722;48.858;21.906;2023-03-03T08:19:05;98684.41;;;22.88;28.96
57574;BME280;63722;48.858;21.906;2023-03-03T08:21:30;98680.41;;;22.91;28.59
57574;BME280;63722;48.858;21.906;2023-03-03T08:23:57;98680.69;;;22.89;28.28
57574;BME280;63722;48.858;21.906;2023-03-03T08:26:24;98684.91;;;22.85;28.30
57574;BME280;63722;48.858;21.906;2023-03-03T08:28:51;98676.13;;;22.90;28.36
57574;BME280;63722;48.858;21.906;2023-03-03T08:31:16;98679.84;;;22.89;27.94
57574;BME280;63722;48.858;21.906;2023-03-03T08:33:42;98674.25;;;22.91;28.41
57574;BME280;63722;48.858;21.906;2023-03-03T08:36:09;98664.38;;;22.96;28.24
57574;BME280;63722;48.858;21.906;2023-03-03T08:38:34;98661.19;;;22.94;28.01
57574;BME280;63722;48.858;21.906;2023-03-03T08:41:00;98663.63;;;23.01;28.24
57574;BME280;63722;48.858;21.906;2023-03-03T08:43:26;98663.34;;;23.02;28.28
57574;BME280;63722;48.858;21.906;2023-03-03T08:45:57;98666.56;;;23.04;28.23
57574;BME280;63722;48.858;21.906;2023-03-03T08:48:24;98662.84;;;23.05;28.10
57574;BME280;63722;48.858;21.906;2023-03-03T08:50:49;98671.91;;;23.04;28.04
57574;BME280;63722;48.858;21.906;2023-03-03T08:53:16;98667.09;;;23.01;27.75
57574;BME280;63722;48.858;21.906;2023-03-03T08:55:41;98657.47;;;23.05;27.88
57574;BME280;63722;48.858;21.906;2023-03-03T08:58:07;98661.22;;;23.04;27.99
57574;BME280;63722;48.858;21.906;2023-03-03T09:00:34;98656.38;;;23.01;28.30
57574;BME280;63722;48.858;21.906;2023-03-03T09:02:59;98656.94;;;23.03;28.16
57574;BME280;63722;48.858;21.906;2023-03-03T09:05:25;98653.19;;;22.99;27.79
57574;BME280;63722;48.858;21.906;2023-03-03T09:07:52;98654.53;;;23.02;28.31
57574;BME280;63722;48.858;21.906;2023-03-03T09:10:20;98656.38;;;22.96;27.78
57574;BME280;63722;48.858;21.906;2023-03-03T09:12:52;98645.41;;;22.98;27.89
57574;BME280;63722;48.858;21.906;2023-03-03T09:15:23;98652.91;;;23.01;27.65
57574;BME280;63722;48.858;21.906;2023-03-03T09:17:50;98647.81;;;22.94;27.69
57574;BME280;63722;48.858;21.906;2023-03-03T09:22:48;98643.78;;;22.97;28.40
57574;BME280;63722;48.858;21.906;2023-03-03T09:27:52;98653.19;;;22.99;27.46
57574;BME280;63722;48.858;21.906;2023-03-03T09:32:47;98645.16;;;22.99;28.19
57574;BME280;63722;48.858;21.906;2023-03-03T09:35:37;98644.66;;;23.07;28.09
57574;BME280;63722;48.858;21.906;2023-03-03T09:46:26;98608.56;;;23.05;28.34
57574;BME280;63722;48.858;21.906;2023-03-03T09:49:01;98608.56;;;23.05;28.02
57574;BME280;63722;48.858;21.906;2023-03-03T09:52:13;98606.19;;;23.14;28.08
57574;BME280;63722;48.858;21.906;2023-03-03T09:54:47;98599.19;;;23.07;28.43
57574;BME280;63722;48.858;21.906;2023-03-03T10:12:13;98594.69;;;23.13;28.11
57574;BME280;63722;48.858;21.906;2023-03-03T10:15:05;98599.25;;;23.13;27.95
57574;BME280;63722;48.858;21.906;2023-03-03T10:21:08;98607.00;;;23.14;28.19
57574;BME280;63722;48.858;21.906;2023-03-03T10:29:17;98598.84;;;22.88;28.59
57574;BME280;63722;48.858;21.906;2023-03-03T10:37:25;98602.94;;;23.06;28.41
57574;BME280;63722;48.858;21.906;2023-03-03T10:42:58;98601.06;;;23.07;28.73
57574;BME280;63722;48.858;21.906;2023-03-03T10:45:38;98601.06;;;23.07;28.49
57574;BME280;63722;48.858;21.906;2023-03-03T11:17:50;98561.09;;;22.80;27.84
57574;BME280;63722;48.858;21.906;2023-03-03T11:32:18;98540.53;;;22.85;28.21
57574;BME280;63722;48.858;21.906;2023-03-03T11:37:09;98545.38;;;22.88;27.94
57574;BME280;63722;48.858;21.906;2023-03-03T11:39:38;98549.59;;;22.74;27.94
57574;BME280;63722;48.858;21.906;2023-03-03T11:42:23;98562.13;;;22.68;27.80
57574;BME280;63722;48.858;21.906;2023-03-03T11:44:54;98549.56;;;22.69;28.27
57574;BME280;63722;48.858;21.906;2023-03-03T11:47:24;98543.16;;;22.70;27.88
57574;BME280;63722;48.858;21.906;2023-03-03T11:49:56;98545.56;;;22.71;27.62
57574;BME280;63722;48.858;21.906;2023-03-03T11:55:21;98543.41;;;22.63;27.46
57574;BME280;63722;48.858;21.906;2023-03-03T12:05:56;98545.56;;;22.71;27.95
57574;BME280;63722;48.858;21.906;2023-03-03T12:09:30;98538.94;;;22.84;27.63
57574;BME280;63722;48.858;21.906;2023-03-03T12:11:55;98533.09;;;22.93;28.09
57574;BME280;63722;48.858;21.906;2023-03-03T12:19:30;98543.84;;;23.08;28.36
57574;BME280;63722;48.858;21.906;2023-03-03T12:46:20;98527.59;;;23.25;29.70
57574;BME280;63722;48.858;21.906;2023-03-03T12:48:48;98525.41;;;23.17;29.73
57574;BME280;63722;48.858;21.906;2023-03-03T13:04:59;98519.81;;;23.23;30.18
57574;BME280;63722;48.858;21.906;2023-03-03T13:15:29;98502.44;;;23.16;30.55
57574;BME280;63722;48.858;21.906;2023-03-03T13:21:08;98506.69;;;23.17;30.80
57574;BME280;63722;48.858;21.906;2023-03-03T13:23:52;98508.31;;;23.18;30.80
57574;BME280;63722;48.858;21.906;2023-03-03T13:31:19;98494.94;;;23.18;30.72
57574;BME280;63722;48.858;21.906;2023-03-03T13:33:56;98496.53;;;23.19;30.87
57574;BME280;63722;48.858;21.906;2023-03-03T13:36:25;98497.88;;;23.16;30.85
57574;BME280;63722;48.858;21.906;2023-03-03T13:39:00;98486.91;;;23.18;30.99
57574;BME280;63722;48.858;21.906;2023-03-03T13:44:25;98486.38;;;23.16;31.15
57574;BME280;63722;48.858;21.906;2023-03-03T13:47:00;98491.72;;;23.16;30.92
57574;BME280;63722;48.858;21.906;2023-03-03T13:52:31;98483.16;;;23.14;31.23
57574;BME280;63722;48.858;21.906;2023-03-03T13:55:20;98489.03;;;23.11;31.07
57574;BME280;63722;48.858;21.906;2023-03-03T14:00:35;98487.44;;;23.10;31.43
57574;BME280;63722;48.858;21.906;2023-03-03T14:05:49;98495.47;;;23.10;31.25
57574;BME280;63722;48.858;21.906;2023-03-03T14:08:29;98491.16;;;23.14;31.25
57574;BME280;63722;48.858;21.906;2023-03-03T14:11:18;98493.84;;;23.09;31.45
57574;BME280;63722;48.858;21.906;2023-03-03T14:19:34;98488.75;;;23.12;31.44
57574;BME280;63722;48.858;21.906;2023-03-03T14:25:02;98479.09;;;23.06;31.97
57574;BME280;63722;48.858;21.906;2023-03-03T14:27:39;98477.25;;;23.06;31.91
57574;BME280;63722;48.858;21.906;2023-03-03T14:35:31;98478.59;;;23.09;31.69
57574;BME280;63722;48.858;21.906;2023-03-03T14:38:19;98475.13;;;23.09;31.88
57574;BME280;63722;48.858;21.906;2023-03-03T14:40:47;98467.34;;;23.07;31.85
57574;BME280;63722;48.858;21.906;2023-03-03T14:43:25;98470.28;;;23.05;31.80
57574;BME280;63722;48.858;21.906;2023-03-03T14:45:52;98473.47;;;23.02;32.11
57574;BME280;63722;48.858;21.906;2023-03-03T14:48:49;98474.28;;;23.08;31.95
57574;BME280;63722;48.858;21.906;2023-03-03T14:53:52;98469.75;;;23.03;32.20
57574;BME280;63722;48.858;21.906;2023-03-03T14:56:27;98474.00;;;23.04;32.15
57574;BME280;63722;48.858;21.906;2023-03-03T14:59:18;98477.25;;;23.06;32.17
57574;BME280;63722;48.858;21.906;2023-03-03T15:01:44;98472.41;;;23.03;32.30
57574;BME280;63722;48.858;21.906;2023-03-03T15:06:44;98470.28;;;23.05;32.11
57574;BME280;63722;48.858;21.906;2023-03-03T15:12:50;98468.66;;;23.04;32.31
57574;BME280;63722;48.858;21.906;2023-03-03T15:25:14;98477.16;;;22.81;29.51
57574;BME280;63722;48.858;21.906;2023-03-03T15:33:37;98484.63;;;22.68;28.96
57574;BME280;63722;48.858;21.906;2023-03-03T15:44:33;98481.94;;;22.63;27.96
57574;BME280;63722;48.858;21.906;2023-03-03T15:50:01;98480.31;;;22.57;28.14
57574;BME280;63722;48.858;21.906;2023-03-03T15:58:03;98490.38;;;22.40;27.67
57574;BME280;63722;48.858;21.906;2023-03-03T16:03:07;98489.59;;;22.44;27.35
57574;BME280;63722;48.858;21.906;2023-03-03T16:06:23;98487.19;;;22.43;27.75
57574;BME280;63722;48.858;21.906;2023-03-03T16:11:56;98488.47;;;22.35;27.87
57574;BME280;63722;48.858;21.906;2023-03-03T16:19:48;98495.78;;;22.50;27.79
57574;BME280;63722;48.858;21.906;2023-03-03T16:27:55;98505.41;;;22.56;28.26
57574;BME280;63722;48.858;21.906;2023-03-03T16:41:33;98535.91;;;22.60;28.44
57574;BME280;63722;48.858;21.906;2023-03-03T16:49:49;98530.56;;;22.65;28.40
57574;BME280;63722;48.858;21.906;2023-03-03T16:52:24;98531.38;;;22.66;28.46
57574;BME280;63722;48.858;21.906;2023-03-03T16:54:56;98531.09;;;22.62;28.63
57574;BME280;63722;48.858;21.906;2023-03-03T16:58:08;98535.66;;;22.67;28.65
57574;BME280;63722;48.858;21.906;2023-03-03T17:00:42;98536.19;;;22.64;28.71
57574;BME280;63722;48.858;21.906;2023-03-03T17:03:42;98540.22;;;22.66;28.54
57574;BME280;63722;48.858;21.906;2023-03-03T17:11:48;98554.06;;;22.58;28.75
57574;BME280;63722;48.858;21.906;2023-03-03T17:17:28;98554.63;;;22.60;29.02
57574;BME280;63722;48.858;21.906;2023-03-03T17:23:14;98557.81;;;22.62;28.94
57574;BME280;63722;48.858;21.906;2023-03-03T17:35:21;98559.97;;;22.60;29.27
57574;BME280;63722;48.858;21.906;2023-03-03T17:40:50;98565.81;;;22.57;29.22
57574;BME280;63722;48.858;21.906;2023-03-03T17:43:20;98572.75;;;22.58;29.41
57574;BME280;63722;48.858;21.906;2023-03-03T17:45:49;98575.16;;;22.55;29.31
57574;BME280;63722;48.858;21.906;2023-03-03T17:48:24;98579.44;;;22.56;29.16
57574;BME280;63722;48.858;21.906;2023-03-03T17:56:26;98575.44;;;22.58;29.21
57574;BME280;63722;48.858;21.906;2023-03-03T18:07:03;98593.09;;;22.59;29.39
57574;BME280;63722;48.858;21.906;2023-03-03T18:12:41;98597.91;;;22.57;29.30
57574;BME280;63722;48.858;21.906;2023-03-03T18:15:26;98599.22;;;22.55;29.66
57574;BME280;63722;48.858;21.906;2023-03-03T18:20:57;98611.78;;;22.54;29.67
57574;BME280;63722;48.858;21.906;2023-03-03T18:25:59;98604.53;;;22.49;30.03
57574;BME280;63722;48.858;21.906;2023-03-03T18:28:45;98611.50;;;22.56;29.62
57574;BME280;63722;48.858;21.906;2023-03-03T18:31:24;98613.94;;;22.57;29.77
57574;BME280;63722;48.858;21.906;2023-03-03T18:34:24;98620.59;;;22.55;29.82
57574;BME280;63722;48.858;21.906;2023-03-03T18:37:01;98617.63;;;22.51;29.82
57574;BME280;63722;48.858;21.906;2023-03-03T18:44:32;98620.81;;;22.48;30.03
57574;BME280;63722;48.858;21.906;2023-03-03T18:46:57;98623.50;;;22.48;29.83
57574;BME280;63722;48.858;21.906;2023-03-03T18:52:17;98633.94;;;22.49;29.96
57574;BME280;63722;48.858;21.906;2023-03-03T18:54:59;98636.34;;;22.51;30.03